createdAt,value
2018-05-09T00:01:20.675Z,3.00
2018-05-09T00:03:48.319Z,3.13
2018-05-09T00:06:15.935Z,3.23
2018-05-09T00:08:43.572Z,3.60
2018-05-09T00:11:11.947Z,3.27
2018-05-09T00:13:40.933Z,3.60
2018-05-09T00:16:08.561Z,3.73
2018-05-09T00:18:36.193Z,4.23
2018-05-09T00:21:03.795Z,3.83
2018-05-09T00:23:31.403Z,3.53
2018-05-09T00:25:59.042Z,3.40
2018-05-09T00:28:26.623Z,3.80
2018-05-09T00:30:54.977Z,4.03
2018-05-09T00:33:22.587Z,3.50
2018-05-09T00:35:50.231Z,3.60
2018-05-09T00:38:18.233Z,3.50
2018-05-09T00:40:45.819Z,3.57
2018-05-09T00:43:13.421Z,3.60
2018-05-09T00:45:41.015Z,4.23
2018-05-09T00:48:08.637Z,3.30
2018-05-09T00:50:37.022Z,4.10
2018-05-09T00:53:04.627Z,4.27
2018-05-09T00:55:32.222Z,4.17
2018-05-09T00:58:00.587Z,4.23
2018-05-09T01:00:28.201Z,3.70
2018-05-09T01:02:55.810Z,3.43
2018-05-09T01:05:24.934Z,3.67
2018-05-09T01:07:52.524Z,4.13
2018-05-09T01:10:20.102Z,4.00
2018-05-09T01:12:47.758Z,3.77
2018-05-09T01:15:15.376Z,4.03
2018-05-09T01:17:43.746Z,3.97
2018-05-09T01:20:12.066Z,3.80
2018-05-09T01:22:39.726Z,3.73
2018-05-09T01:25:07.357Z,4.10
2018-05-09T01:27:34.957Z,3.30
2018-05-09T01:30:02.520Z,3.83
2018-05-09T01:32:30.096Z,4.10
2018-05-09T01:34:57.728Z,4.80
2018-05-09T01:37:25.361Z,5.37
2018-05-09T01:39:53.780Z,5.30
2018-05-09T01:42:21.459Z,5.17
2018-05-09T01:44:49.016Z,4.63
2018-05-09T01:47:16.626Z,4.77
2018-05-09T01:49:44.205Z,5.10
2018-05-09T01:52:11.821Z,4.87
2018-05-09T01:54:40.217Z,5.10
2018-05-09T01:57:08.595Z,5.30
2018-05-09T01:59:36.952Z,5.20
2018-05-09T02:02:05.641Z,5.60
2018-05-09T02:04:33.273Z,5.60
2018-05-09T02:07:00.874Z,5.37
2018-05-09T02:09:28.499Z,5.37
2018-05-09T02:11:56.108Z,5.43
2018-05-09T02:14:24.484Z,5.40
2018-05-09T02:16:52.780Z,6.00
2018-05-09T02:19:20.400Z,5.47
2018-05-09T02:21:48.026Z,4.70
2018-05-09T02:24:15.631Z,5.57
2018-05-09T02:26:43.989Z,5.30
2018-05-09T02:29:11.583Z,4.97
2018-05-09T02:31:39.963Z,4.90
2018-05-09T02:34:08.329Z,4.73
2018-05-09T02:36:36.725Z,4.90
2018-05-09T02:39:04.347Z,4.97
2018-05-09T02:41:31.980Z,4.70
2018-05-09T02:43:59.590Z,4.70
2018-05-09T02:46:27.188Z,5.43
2018-05-09T02:48:54.835Z,5.43
2018-05-09T02:51:22.492Z,5.07
2018-05-09T02:53:50.070Z,5.47
2018-05-09T02:56:17.703Z,5.13
2018-05-09T02:58:45.330Z,5.27
2018-05-09T03:01:12.994Z,5.33
2018-05-09T03:03:40.606Z,4.93
2018-05-09T03:06:08.210Z,4.97
2018-05-09T03:08:35.776Z,5.40
2018-05-09T03:11:03.401Z,5.23
2018-05-09T03:13:30.965Z,5.43
2018-05-09T03:15:58.571Z,5.60
2018-05-09T03:18:26.947Z,5.80
2018-05-09T03:20:54.585Z,5.40
2018-05-09T03:23:22.175Z,5.60
2018-05-09T03:25:49.775Z,5.30
2018-05-09T03:28:17.354Z,6.27
2018-05-09T03:30:44.942Z,5.87
2018-05-09T03:33:12.536Z,6.00
2018-05-09T03:35:40.913Z,5.20
2018-05-09T03:38:08.551Z,4.93
2018-05-09T03:43:44.789Z,4.90
2018-05-09T03:46:12.431Z,5.70
2018-05-09T03:48:40.961Z,5.13
2018-05-09T03:51:08.545Z,5.37
2018-05-09T03:53:36.921Z,5.47
2018-05-09T03:56:06.314Z,6.37
2018-05-09T03:58:33.915Z,6.43
2018-05-09T04:01:01.493Z,6.07
2018-05-09T04:03:40.840Z,5.77
2018-05-09T04:06:24.620Z,5.00
2018-05-09T04:09:04.877Z,4.73
2018-05-09T04:11:32.467Z,5.77
2018-05-09T04:14:00.054Z,4.77
2018-05-09T04:16:27.666Z,5.47
2018-05-09T04:18:55.272Z,6.10
2018-05-09T04:21:22.842Z,6.63
2018-05-09T04:23:50.400Z,6.43
2018-05-09T04:26:28.432Z,6.60
2018-05-09T04:28:56.202Z,6.50
2018-05-09T04:31:23.808Z,6.07
2018-05-09T04:33:53.364Z,6.00
2018-05-09T04:36:21.736Z,5.90
2018-05-09T04:38:52.249Z,6.37
2018-05-09T04:41:21.510Z,6.83
2018-05-09T04:43:49.270Z,6.47
2018-05-09T04:46:33.722Z,6.43
2018-05-09T04:49:02.099Z,6.63
2018-05-09T04:51:30.477Z,7.03
2018-05-09T04:53:58.868Z,7.10
2018-05-09T04:56:26.480Z,7.47
2018-05-09T04:58:54.059Z,6.70
2018-05-09T05:01:21.777Z,5.80
2018-05-09T05:03:49.425Z,6.53
2018-05-09T05:06:17.034Z,6.63
2018-05-09T05:08:44.615Z,5.97
2018-05-09T05:11:13.017Z,5.10
2018-05-09T05:13:40.630Z,7.03
2018-05-09T05:16:08.293Z,6.37
2018-05-09T05:18:36.662Z,5.80
2018-05-09T05:21:04.247Z,5.63
2018-05-09T05:23:31.863Z,5.63
2018-05-09T05:25:59.605Z,6.53
2018-05-09T05:28:31.593Z,7.10
2018-05-09T05:31:04.525Z,6.80
2018-05-09T05:33:39.460Z,6.20
2018-05-09T05:36:14.379Z,5.97
2018-05-09T05:39:07.769Z,5.77
2018-05-09T05:44:36.247Z,6.00
2018-05-09T05:55:20.480Z,5.50
2018-05-09T06:01:14.152Z,5.10
2018-05-09T06:17:49.694Z,4.85
2018-05-09T06:20:28.821Z,5.30
2018-05-09T06:23:02.592Z,5.30
2018-05-09T06:25:33.795Z,5.45
2018-05-09T06:28:07.873Z,4.95
2018-05-09T06:30:40.021Z,5.22
2018-05-09T06:33:07.775Z,5.93
2018-05-09T06:35:35.281Z,5.12
2018-05-09T06:38:03.586Z,4.97
2018-05-09T06:40:31.138Z,5.10
2018-05-09T06:42:58.776Z,4.87
2018-05-09T06:45:26.470Z,5.70
2018-05-09T06:47:56.213Z,5.20
2018-05-09T06:50:27.230Z,6.17
2018-05-09T06:52:56.418Z,5.97
2018-05-09T06:55:23.943Z,6.00
2018-05-09T06:57:52.260Z,5.53
2018-05-09T07:00:19.781Z,5.00
2018-05-09T07:02:47.342Z,5.47
2018-05-09T07:05:15.730Z,5.70
2018-05-09T07:07:43.334Z,4.50
2018-05-09T07:10:11.041Z,5.23
2018-05-09T07:12:38.777Z,5.43
2018-05-09T07:15:06.415Z,4.80
2018-05-09T07:17:34.380Z,5.53
2018-05-09T07:20:02.131Z,5.37
2018-05-09T07:22:29.787Z,6.00
2018-05-09T07:24:57.428Z,5.90
2018-05-09T07:27:25.005Z,6.50
2018-05-09T07:29:52.708Z,6.30
2018-05-09T07:32:20.616Z,4.83
2018-05-09T07:34:48.950Z,5.70
2018-05-09T07:37:16.585Z,6.27
2018-05-09T07:39:44.175Z,5.70
2018-05-09T07:42:11.925Z,5.17
2018-05-09T07:44:39.920Z,5.07
2018-05-09T07:47:07.515Z,4.40
2018-05-09T07:49:35.150Z,5.40
2018-05-09T07:52:03.563Z,5.73
2018-05-09T07:54:31.168Z,5.93
2018-05-09T07:56:59.337Z,6.10
2018-05-09T07:59:26.940Z,6.27
2018-05-09T08:01:55.334Z,6.33
2018-05-09T08:04:22.916Z,5.87
2018-05-09T08:06:51.277Z,6.10
2018-05-09T08:09:18.911Z,6.07
2018-05-09T08:11:46.497Z,5.30
2018-05-09T08:14:14.121Z,4.95
2018-05-09T08:16:41.757Z,5.10
2018-05-09T08:19:09.407Z,5.13
2018-05-09T08:21:37.066Z,5.40
2018-05-09T08:24:04.684Z,5.17
2018-05-09T08:26:33.080Z,4.90
2018-05-09T08:29:01.695Z,4.20
2018-05-09T08:31:29.464Z,4.60
2018-05-09T08:33:57.169Z,4.90
2018-05-09T08:36:24.835Z,4.57
2018-05-09T08:38:52.696Z,5.17
2018-05-09T08:41:21.130Z,4.60
2018-05-09T08:43:49.449Z,4.57
2018-05-09T08:46:17.770Z,4.00
2018-05-09T08:48:45.492Z,4.60
2018-05-09T08:51:13.139Z,5.10
2018-05-09T08:53:40.771Z,4.47
2018-05-09T08:56:08.318Z,4.40
2018-05-09T08:58:35.905Z,4.33
2018-05-09T09:01:03.559Z,5.13
2018-05-09T09:03:31.236Z,3.70
2018-05-09T09:05:58.856Z,5.40
2018-05-09T09:08:26.443Z,4.50
2018-05-09T09:10:54.130Z,4.93
2018-05-09T09:13:23.324Z,4.90
2018-05-09T09:15:50.925Z,4.67
2018-05-09T09:18:20.478Z,4.90
2018-05-09T09:20:49.052Z,4.80
2018-05-09T09:23:17.387Z,4.65
2018-05-09T09:25:44.981Z,4.40
2018-05-09T09:28:12.590Z,4.50
2018-05-09T09:30:40.930Z,4.37
2018-05-09T09:33:08.594Z,3.60
2018-05-09T09:35:36.160Z,3.60
2018-05-09T09:38:03.764Z,3.50
2018-05-09T09:40:31.358Z,4.33
2018-05-09T09:42:58.949Z,4.30
2018-05-09T09:45:26.568Z,4.20
2018-05-09T09:47:54.176Z,4.30
2018-05-09T09:50:21.774Z,4.20
2018-05-09T09:52:49.356Z,3.80
2018-05-09T09:55:16.980Z,3.80
2018-05-09T09:57:45.486Z,3.57
2018-05-09T10:00:13.129Z,3.63
2018-05-09T10:02:40.728Z,3.90
2018-05-09T10:05:08.318Z,3.90
2018-05-09T10:07:35.907Z,4.60
2018-05-09T10:10:03.542Z,4.30
2018-05-09T10:12:31.156Z,4.50
2018-05-09T10:14:58.738Z,3.60
2018-05-09T10:17:26.386Z,3.50
2018-05-09T10:19:53.961Z,3.80
2018-05-09T10:22:21.582Z,3.57
2018-05-09T10:24:49.184Z,3.57
2018-05-09T10:27:16.801Z,3.73
2018-05-09T10:29:44.400Z,4.50
2018-05-09T10:32:12.000Z,3.90
2018-05-09T10:34:40.360Z,4.73
2018-05-09T10:37:08.069Z,4.07
2018-05-09T10:39:35.690Z,3.77
2018-05-09T10:42:03.287Z,3.77
2018-05-09T10:44:30.880Z,3.80
2018-05-09T10:46:58.435Z,3.40
2018-05-09T10:49:26.053Z,3.50
2018-05-09T10:51:53.665Z,3.83
2018-05-09T10:54:21.289Z,3.17
2018-05-09T10:56:48.885Z,4.00
2018-05-09T10:59:16.541Z,3.70
2018-05-09T11:01:44.161Z,3.27
2018-05-09T11:04:11.706Z,3.87
2018-05-09T11:06:40.107Z,2.40
2018-05-09T11:09:07.693Z,2.90
2018-05-09T11:11:35.320Z,3.20
2018-05-09T11:14:02.873Z,3.37
2018-05-09T11:16:31.256Z,3.37
2018-05-09T11:18:59.651Z,2.83
2018-05-09T11:21:27.268Z,3.40
2018-05-09T11:23:54.838Z,3.30
2018-05-09T11:26:22.410Z,2.70
2018-05-09T11:28:50.761Z,2.97
2018-05-09T11:31:18.395Z,2.83
2018-05-09T11:33:46.909Z,3.17
2018-05-09T11:36:14.500Z,3.10
2018-05-09T11:38:42.122Z,2.60
2018-05-09T11:41:09.738Z,3.00
2018-05-09T11:43:37.364Z,2.55
2018-05-09T11:46:04.958Z,2.80
2018-05-09T11:48:32.545Z,2.97
2018-05-09T11:51:00.133Z,2.60
2018-05-09T11:53:28.635Z,2.50
2018-05-09T11:55:57.003Z,2.83
2018-05-09T11:58:24.623Z,2.63
2018-05-09T12:00:52.441Z,3.00
2018-05-09T12:03:20.823Z,2.87
2018-05-09T12:05:49.173Z,3.07
2018-05-09T12:08:16.768Z,2.80
2018-05-09T12:10:45.181Z,2.90
2018-05-09T12:13:12.825Z,2.92
2018-05-09T12:15:40.435Z,2.72
2018-05-09T12:18:08.038Z,2.60
2018-05-09T12:20:35.655Z,2.80
2018-05-09T12:23:03.270Z,2.80
2018-05-09T12:25:30.869Z,2.95
2018-05-09T12:27:58.473Z,2.65
2018-05-09T12:30:26.058Z,3.00
2018-05-09T12:32:53.712Z,2.70
2018-05-09T12:35:21.331Z,2.45
2018-05-09T12:37:48.983Z,2.40
2018-05-09T12:40:16.607Z,2.87
2018-05-09T12:42:44.213Z,2.60
2018-05-09T12:45:11.831Z,2.42
2018-05-09T12:47:39.422Z,2.72
2018-05-09T12:50:07.041Z,2.50
2018-05-09T12:52:34.620Z,2.90
2018-05-09T12:55:02.241Z,2.92
2018-05-09T12:57:29.845Z,2.80
2018-05-09T12:59:57.453Z,3.08
2018-05-09T13:02:25.827Z,2.67
2018-05-09T13:04:54.218Z,2.83
2018-05-09T13:07:21.840Z,3.20
2018-05-09T13:09:49.384Z,2.80
2018-05-09T13:12:16.996Z,2.90
2018-05-09T13:14:45.337Z,3.00
2018-05-09T13:17:12.953Z,3.00
2018-05-09T13:19:40.583Z,2.40
2018-05-09T13:22:08.983Z,2.80
2018-05-09T13:24:37.351Z,2.80
2018-05-09T13:27:05.731Z,2.92
2018-05-09T13:29:34.127Z,2.97
2018-05-09T13:32:01.673Z,2.53
2018-05-09T13:34:30.093Z,2.60
2018-05-09T13:36:57.705Z,3.20
2018-05-09T13:39:26.081Z,2.55
2018-05-09T13:41:54.439Z,2.70
2018-05-09T13:44:22.853Z,2.80
2018-05-09T13:46:50.505Z,2.45
2018-05-09T13:49:18.125Z,2.90
2018-05-09T13:51:45.745Z,2.60
2018-05-09T13:54:13.343Z,2.90
2018-05-09T13:56:40.942Z,2.95
2018-05-09T13:59:09.333Z,2.60
2018-05-09T14:01:37.729Z,2.80
2018-05-09T14:04:05.279Z,2.60
2018-05-09T14:06:32.875Z,2.40
2018-05-09T14:09:00.488Z,2.95
2018-05-09T14:11:28.103Z,2.85
2018-05-09T14:13:55.689Z,2.47
2018-05-09T14:16:23.421Z,2.20
2018-05-09T14:18:50.999Z,2.40
2018-05-09T14:21:18.619Z,2.58
2018-05-09T14:23:47.327Z,2.40
2018-05-09T14:26:14.926Z,2.80
2018-05-09T14:28:42.540Z,2.75
2018-05-09T14:31:10.164Z,2.50
2018-05-09T14:33:38.543Z,2.90
2018-05-09T14:36:06.911Z,3.00
2018-05-09T14:38:35.317Z,3.12
2018-05-09T14:41:02.906Z,3.17
2018-05-09T14:43:30.527Z,2.95
2018-05-09T14:45:58.894Z,2.70
2018-05-09T14:48:27.283Z,2.85
2018-05-09T14:50:55.668Z,2.37
2018-05-09T14:53:23.249Z,3.10
2018-05-09T14:55:50.837Z,3.30
2018-05-09T14:58:19.179Z,3.00
2018-05-09T15:00:46.783Z,3.00
2018-05-09T15:03:14.383Z,2.67
2018-05-09T15:05:42.772Z,2.60
2018-05-09T15:08:15.722Z,2.40
2018-05-09T15:10:44.105Z,2.60
2018-05-09T15:13:11.696Z,2.17
2018-05-09T15:15:39.280Z,2.42
2018-05-09T15:18:06.902Z,2.37
2018-05-09T15:20:35.269Z,2.37
2018-05-09T15:23:02.846Z,2.72
2018-05-09T15:25:31.349Z,2.67
2018-05-09T15:27:58.941Z,2.97
2018-05-09T15:30:26.567Z,2.55
2018-05-09T15:32:54.259Z,3.00
2018-05-09T15:35:21.815Z,3.00
2018-05-09T15:37:49.526Z,4.10
2018-05-09T15:40:17.933Z,2.70
2018-05-09T15:42:45.553Z,3.00
2018-05-09T15:45:13.164Z,3.03
2018-05-09T15:47:40.780Z,3.03
2018-05-09T15:50:08.442Z,3.37
2018-05-09T15:52:35.999Z,3.95
2018-05-09T15:55:03.626Z,3.35
2018-05-09T15:57:31.215Z,2.90
2018-05-09T15:59:58.853Z,3.25
2018-05-09T16:02:26.426Z,2.80
2018-05-09T16:04:54.031Z,2.60
2018-05-09T16:07:22.386Z,3.37
2018-05-09T16:09:50.000Z,3.33
2018-05-09T16:12:17.620Z,3.30
2018-05-09T16:14:46.059Z,2.70
2018-05-09T16:17:13.638Z,3.53
2018-05-09T16:19:41.260Z,3.00
2018-05-09T16:22:08.844Z,3.13
2018-05-09T16:24:36.437Z,2.80
2018-05-09T16:27:04.826Z,2.30
2018-05-09T16:29:33.204Z,3.80
2018-05-09T16:32:00.821Z,2.40
2018-05-09T16:34:28.417Z,3.10
2018-05-09T16:36:56.032Z,2.70
2018-05-09T16:39:23.633Z,2.83
2018-05-09T16:41:51.549Z,2.70
2018-05-09T16:44:19.297Z,3.10
2018-05-09T16:46:46.905Z,2.70
2018-05-09T16:49:14.494Z,2.67
2018-05-09T16:51:43.197Z,3.00
2018-05-09T16:54:11.131Z,3.20
2018-05-09T16:56:42.862Z,2.70
2018-05-09T16:59:10.470Z,2.97
2018-05-09T17:01:38.075Z,2.87
2018-05-09T17:04:05.691Z,2.70
2018-05-09T17:06:34.089Z,2.73
2018-05-09T17:09:01.925Z,3.03
2018-05-09T17:11:30.306Z,2.80
2018-05-09T17:13:58.674Z,2.67
2018-05-09T17:16:26.300Z,2.77
2018-05-09T17:18:54.195Z,2.80
2018-05-09T17:21:34.725Z,2.33
2018-05-09T17:24:02.416Z,2.40
2018-05-09T17:26:30.170Z,2.70
2018-05-09T17:28:57.750Z,2.67
2018-05-09T17:31:25.670Z,2.10
2018-05-09T17:33:53.372Z,1.70
2018-05-09T17:36:25.428Z,1.97
2018-05-09T17:38:56.991Z,1.93
2018-05-09T17:41:24.578Z,1.80
2018-05-09T17:43:52.207Z,2.00
2018-05-09T17:46:20.599Z,1.90
2018-05-09T17:48:49.698Z,2.03
2018-05-09T17:51:18.236Z,2.10
2018-05-09T17:53:51.269Z,2.20
2018-05-09T17:56:19.927Z,2.77
2018-05-09T17:58:47.759Z,2.90
2018-05-09T18:01:18.876Z,3.20
2018-05-09T18:03:47.348Z,3.10
2018-05-09T18:06:17.193Z,3.17
2018-05-09T18:08:49.325Z,3.60
2018-05-09T18:11:17.668Z,3.33
2018-05-09T18:13:45.358Z,3.30
2018-05-09T18:16:13.298Z,3.30
2018-05-09T18:18:41.419Z,3.30
2018-05-09T18:21:09.174Z,3.40
2018-05-09T18:23:36.954Z,4.10
2018-05-09T18:26:05.058Z,4.00
2018-05-09T18:28:32.835Z,3.80
2018-05-09T18:31:00.428Z,3.40
2018-05-09T18:33:28.158Z,3.10
2018-05-09T18:35:55.793Z,2.60
2018-05-09T18:38:23.472Z,3.30
2018-05-09T18:40:51.096Z,3.13
2018-05-09T18:43:19.510Z,3.10
2018-05-09T18:45:47.180Z,3.40
2018-05-09T18:48:14.868Z,3.93
2018-05-09T18:50:42.531Z,3.57
2018-05-09T18:53:10.271Z,3.70
2018-05-09T18:55:37.926Z,3.50
2018-05-09T18:58:05.649Z,3.50
2018-05-09T19:00:34.040Z,3.50
2018-05-09T19:03:02.514Z,3.57
2018-05-09T19:05:31.058Z,3.70
2018-05-09T19:07:58.780Z,3.30
2018-05-09T19:10:26.440Z,3.47
2018-05-09T19:12:54.075Z,3.63
2018-05-09T19:15:22.817Z,3.20
2018-05-09T19:17:52.234Z,3.67
2018-05-09T19:20:19.978Z,3.40
2018-05-09T19:22:47.612Z,3.40
2018-05-09T19:25:15.232Z,3.40
2018-05-09T19:27:43.004Z,3.67
2018-05-09T19:30:14.879Z,3.50
2018-05-09T19:32:42.856Z,3.30
2018-05-09T19:35:20.604Z,3.13
2018-05-09T19:37:49.511Z,3.03
2018-05-09T19:40:17.429Z,3.40
2018-05-09T19:42:45.048Z,3.57
2018-05-09T19:45:12.654Z,3.67
2018-05-09T19:47:40.209Z,3.20
2018-05-09T19:50:07.773Z,3.53
2018-05-09T19:52:35.359Z,4.07
2018-05-09T19:55:03.102Z,4.03
2018-05-09T19:57:30.611Z,4.33
2018-05-09T19:59:58.215Z,3.93
2018-05-09T20:02:25.809Z,3.60
2018-05-09T20:04:53.402Z,3.62
2018-05-09T20:07:21.015Z,3.80
2018-05-09T20:09:48.620Z,3.90
2018-05-09T20:12:16.207Z,4.17
2018-05-09T20:14:43.827Z,3.30
2018-05-09T20:17:11.397Z,3.20
2018-05-09T20:19:38.984Z,3.20
2018-05-09T20:22:07.338Z,4.33
2018-05-09T20:24:34.942Z,4.80
2018-05-09T20:27:06.443Z,4.70
2018-05-09T20:29:34.076Z,3.83
2018-05-09T20:32:13.540Z,4.47
2018-05-09T20:34:41.909Z,3.90
2018-05-09T20:37:09.556Z,4.33
2018-05-09T20:39:37.166Z,4.60
2018-05-09T20:42:05.657Z,4.03
2018-05-09T20:44:33.154Z,3.37
2018-05-09T20:47:00.774Z,4.20
2018-05-09T20:49:29.131Z,3.70
2018-05-09T20:51:56.712Z,4.00
2018-05-09T20:54:25.118Z,4.33
2018-05-09T20:56:52.720Z,4.40
2018-05-09T20:59:20.325Z,5.43
2018-05-09T21:01:48.661Z,4.40
2018-05-09T21:04:17.046Z,4.80
2018-05-09T21:06:44.668Z,4.50
2018-05-09T21:09:12.348Z,4.23
2018-05-09T21:11:39.952Z,3.90
2018-05-09T21:14:08.340Z,3.70
2018-05-09T21:16:35.966Z,3.90
2018-05-09T21:19:06.937Z,5.00
2018-05-09T21:21:35.322Z,3.70
2018-05-09T21:24:02.944Z,4.17
2018-05-09T21:26:30.602Z,3.63
2018-05-09T21:28:58.227Z,4.00
2018-05-09T21:31:25.836Z,3.50
2018-05-09T21:33:53.430Z,3.40
2018-05-09T21:36:21.046Z,4.00
2018-05-09T21:38:48.778Z,4.10
2018-05-09T21:41:16.350Z,4.10
2018-05-09T21:43:43.936Z,3.70
2018-05-09T21:46:11.666Z,3.90
2018-05-09T21:48:39.310Z,3.77
2018-05-09T21:51:06.902Z,3.30
2018-05-09T21:53:34.496Z,3.60
2018-05-09T21:56:02.933Z,2.90
2018-05-09T21:58:30.596Z,2.90
2018-05-09T22:00:58.201Z,3.07
2018-05-09T22:03:26.606Z,3.47
2018-05-09T22:05:54.226Z,3.83
2018-05-09T22:08:22.580Z,3.50
2018-05-09T22:10:50.252Z,3.90
2018-05-09T22:13:36.527Z,3.10
2018-05-09T22:16:04.168Z,3.17
2018-05-09T22:18:31.808Z,3.20
2018-05-09T22:21:00.170Z,3.80
2018-05-09T22:23:27.794Z,3.30
2018-05-09T22:25:55.378Z,3.50
2018-05-09T22:28:23.010Z,3.50
2018-05-09T22:30:50.605Z,3.30
2018-05-09T22:33:18.172Z,3.30
2018-05-09T22:35:45.773Z,3.97
2018-05-09T22:38:13.362Z,4.03
2018-05-09T22:40:40.988Z,3.90
2018-05-09T22:43:08.597Z,3.70
2018-05-09T22:45:36.290Z,3.57
2018-05-09T22:48:03.938Z,3.43
2018-05-09T22:50:31.482Z,3.67
2018-05-09T22:52:59.094Z,3.63
2018-05-09T22:55:26.690Z,3.60
2018-05-09T22:57:54.268Z,3.03
2018-05-09T23:00:21.884Z,3.33
2018-05-09T23:02:49.478Z,2.80
2018-05-09T23:05:17.113Z,3.03
2018-05-09T23:07:44.786Z,3.07
2018-05-09T23:10:12.434Z,2.97
2018-05-09T23:12:40.008Z,3.10
2018-05-09T23:15:07.609Z,2.97
2018-05-09T23:17:35.233Z,3.20
2018-05-09T23:20:02.850Z,3.40
2018-05-09T23:22:31.194Z,3.33
2018-05-09T23:24:58.829Z,2.72
2018-05-09T23:27:26.461Z,3.03
2018-05-09T23:29:54.065Z,2.90
2018-05-09T23:32:21.620Z,3.10
2018-05-09T23:34:49.202Z,2.87
2018-05-09T23:37:16.804Z,2.87
2018-05-09T23:39:44.361Z,2.73
2018-05-09T23:42:11.969Z,3.20
2018-05-09T23:44:39.539Z,3.60
2018-05-09T23:47:07.114Z,3.80
2018-05-09T23:49:34.822Z,4.20
2018-05-09T23:52:02.485Z,4.60
2018-05-09T23:54:30.822Z,4.90
2018-05-09T23:56:59.240Z,5.37
2018-05-09T23:59:26.787Z,5.23
